sensor_id;sensor_type;location;lat;lon;timestamp;pressure;altitude;pressure_sealevel;temperature;humidity
45523;BME280;31254;51.680;5.394;2023-05-17T00:02:09;102530.97;;;9.24;80.11
45523;BME280;31254;51.680;5.394;2023-05-17T00:04:35;102522.91;;;9.23;80.37
45523;BME280;31254;51.680;5.394;2023-05-17T00:07:05;102527.69;;;9.19;80.08
45523;BME280;31254;51.680;5.394;2023-05-17T00:09:32;102519.03;;;9.12;80.59
45523;BME280;31254;51.680;5.394;2023-05-17T00:11:59;102510.22;;;9.09;80.83
45523;BME280;31254;51.680;5.394;2023-05-17T00:14:26;102521.78;;;9.12;80.43
45523;BME280;31254;51.680;5.394;2023-05-17T00:16:52;102522.63;;;9.13;81.07
45523;BME280;31254;51.680;5.394;2023-05-17T00:19:19;102523.94;;;9.07;81.32
45523;BME280;31254;51.680;5.394;2023-05-17T00:21:46;102531.53;;;9.02;81.17
45523;BME280;31254;51.680;5.394;2023-05-17T00:24:13;102526.47;;;8.96;81.22
45523;BME280;31254;51.680;5.394;2023-05-17T00:26:40;102534.25;;;9.02;81.59
45523;BME280;31254;51.680;5.394;2023-05-17T00:29:07;102517.50;;;8.94;81.64
45523;BME280;31254;51.680;5.394;2023-05-17T00:31:39;102515.47;;;8.98;81.70
45523;BME280;31254;51.680;5.394;2023-05-17T00:34:06;102529.00;;;8.99;82.04
45523;BME280;31254;51.680;5.394;2023-05-17T00:36:33;102532.78;;;8.96;81.87
45523;BME280;31254;51.680;5.394;2023-05-17T00:39:00;102516.94;;;8.89;82.04
45523;BME280;31254;51.680;5.394;2023-05-17T00:41:27;102523.94;;;8.93;82.02
45523;BME280;31254;51.680;5.394;2023-05-17T00:43:54;102521.31;;;8.91;82.54
45523;BME280;31254;51.680;5.394;2023-05-17T00:46:21;102515.19;;;8.88;82.78
45523;BME280;31254;51.680;5.394;2023-05-17T00:48:48;102516.94;;;8.89;82.74
45523;BME280;31254;51.680;5.394;2023-05-17T00:51:18;102529.75;;;8.87;83.26
45523;BME280;31254;51.680;5.394;2023-05-17T00:53:48;102537.94;;;8.87;83.06
45523;BME280;31254;51.680;5.394;2023-05-17T00:56:16;102526.28;;;8.85;83.26
45523;BME280;31254;51.680;5.394;2023-05-17T00:58:45;102528.09;;;8.84;83.61
45523;BME280;31254;51.680;5.394;2023-05-17T01:01:15;102511.38;;;8.76;83.64
45523;BME280;31254;51.680;5.394;2023-05-17T01:03:42;102520.25;;;8.80;83.89
45523;BME280;31254;51.680;5.394;2023-05-17T01:06:12;102474.00;;;8.51;83.77
45523;BME280;31254;51.680;5.394;2023-05-17T01:08:39;102518.69;;;8.75;84.15
45523;BME280;31254;51.680;5.394;2023-05-17T01:11:28;102520.44;;;8.76;84.21
45523;BME280;31254;51.680;5.394;2023-05-17T01:17:00;102528.91;;;8.72;83.72
45523;BME280;31254;51.680;5.394;2023-05-17T01:19:47;102538.69;;;8.74;84.20
45523;BME280;31254;51.680;5.394;2023-05-17T01:27:17;102530.94;;;8.68;84.27
45523;BME280;31254;51.680;5.394;2023-05-17T01:29:46;102473.75;;;8.39;84.31
45523;BME280;31254;51.680;5.394;2023-05-17T01:32:14;102523.34;;;8.59;84.42
45523;BME280;31254;51.680;5.394;2023-05-17T01:34:44;102527.63;;;8.63;84.86
45523;BME280;31254;51.680;5.394;2023-05-17T01:37:11;102528.59;;;8.62;84.96
45523;BME280;31254;51.680;5.394;2023-05-17T01:39:38;102515.28;;;8.57;85.07
45523;BME280;31254;51.680;5.394;2023-05-17T01:47:25;102526.16;;;8.57;85.01
45523;BME280;31254;51.680;5.394;2023-05-17T01:49:54;102523.91;;;8.50;85.37
45523;BME280;31254;51.680;5.394;2023-05-17T01:58:09;102524.00;;;8.48;85.49
45523;BME280;31254;51.680;5.394;2023-05-17T02:00:38;102509.97;;;8.40;85.99
45523;BME280;31254;51.680;5.394;2023-05-17T02:03:05;102521.38;;;8.47;85.83
45523;BME280;31254;51.680;5.394;2023-05-17T02:05:32;102527.72;;;8.47;85.89
45523;BME280;31254;51.680;5.394;2023-05-17T02:07:59;102478.22;;;8.26;85.85
45523;BME280;31254;51.680;5.394;2023-05-17T02:10:26;102524.69;;;8.52;86.04
45523;BME280;31254;51.680;5.394;2023-05-17T02:12:53;102519.88;;;8.57;86.04
45523;BME280;31254;51.680;5.394;2023-05-17T02:15:22;102510.72;;;8.58;86.18
45523;BME280;31254;51.680;5.394;2023-05-17T02:17:48;102496.16;;;8.59;86.14
45523;BME280;31254;51.680;5.394;2023-05-17T02:20:18;102464.94;;;8.36;86.17
45523;BME280;31254;51.680;5.394;2023-05-17T02:22:45;102516.44;;;8.68;86.46
45523;BME280;31254;51.680;5.394;2023-05-17T02:25:14;102508.75;;;8.60;86.38
45523;BME280;31254;51.680;5.394;2023-05-17T02:27:41;102524.41;;;8.71;86.02
45523;BME280;31254;51.680;5.394;2023-05-17T02:30:08;102524.13;;;8.75;85.76
45523;BME280;31254;51.680;5.394;2023-05-17T02:32:42;102531.81;;;8.83;86.05
45523;BME280;31254;51.680;5.394;2023-05-17T02:35:09;102528.81;;;8.88;85.83
45523;BME280;31254;51.680;5.394;2023-05-17T02:37:38;102526.66;;;8.93;86.02
45523;BME280;31254;51.680;5.394;2023-05-17T02:40:06;102520.31;;;8.92;86.14
45523;BME280;31254;51.680;5.394;2023-05-17T02:42:37;102524.81;;;8.93;85.85
45523;BME280;31254;51.680;5.394;2023-05-17T02:45:06;102536.25;;;8.99;85.87
45523;BME280;31254;51.680;5.394;2023-05-17T02:47:33;102533.44;;;9.00;85.57
45523;BME280;31254;51.680;5.394;2023-05-17T02:50:03;102530.63;;;9.02;86.21
45523;BME280;31254;51.680;5.394;2023-05-17T02:52:34;102525.19;;;9.02;86.05
45523;BME280;31254;51.680;5.394;2023-05-17T02:55:01;102525.09;;;9.03;85.66
45523;BME280;31254;51.680;5.394;2023-05-17T02:57:30;102540.34;;;9.06;85.85
45523;BME280;31254;51.680;5.394;2023-05-17T02:59:56;102537.72;;;9.04;86.30
45523;BME280;31254;51.680;5.394;2023-05-17T03:02:23;102526.28;;;8.99;86.14
45523;BME280;31254;51.680;5.394;2023-05-17T03:04:50;102529.94;;;8.98;86.18
45523;BME280;31254;51.680;5.394;2023-05-17T03:07:18;102535.59;;;8.95;86.34
45523;BME280;31254;51.680;5.394;2023-05-17T03:09:45;102542.59;;;8.99;86.35
45523;BME280;31254;51.680;5.394;2023-05-17T03:12:11;102542.50;;;9.01;86.53
45523;BME280;31254;51.680;5.394;2023-05-17T03:14:39;102548.72;;;9.03;86.48
45523;BME280;31254;51.680;5.394;2023-05-17T03:17:10;102536.34;;;8.97;86.60
45523;BME280;31254;51.680;5.394;2023-05-17T03:19:41;102539.50;;;8.91;86.60
45523;BME280;31254;51.680;5.394;2023-05-17T03:22:11;102530.06;;;8.82;87.00
45523;BME280;31254;51.680;5.394;2023-05-17T03:24:40;102542.69;;;8.83;87.18
45523;BME280;31254;51.680;5.394;2023-05-17T03:27:07;102561.47;;;8.88;87.26
45523;BME280;31254;51.680;5.394;2023-05-17T03:29:34;102564.66;;;8.80;87.51
45523;BME280;31254;51.680;5.394;2023-05-17T03:32:04;102559.69;;;8.72;87.86
45523;BME280;31254;51.680;5.394;2023-05-17T03:34:32;102565.31;;;8.69;87.63
45523;BME280;31254;51.680;5.394;2023-05-17T03:37:00;102551.41;;;8.59;88.03
45523;BME280;31254;51.680;5.394;2023-05-17T03:39:29;102571.94;;;8.65;87.99
45523;BME280;31254;51.680;5.394;2023-05-17T03:41:57;102539.47;;;8.48;88.24
45523;BME280;31254;51.680;5.394;2023-05-17T03:44:24;102573.28;;;8.58;88.20
45523;BME280;31254;51.680;5.394;2023-05-17T03:46:51;102577.75;;;8.59;88.50
45523;BME280;31254;51.680;5.394;2023-05-17T03:49:20;102545.63;;;8.35;88.20
45523;BME280;31254;51.680;5.394;2023-05-17T03:51:47;102578.81;;;8.56;88.51
45523;BME280;31254;51.680;5.394;2023-05-17T03:54:14;102581.44;;;8.58;88.64
45523;BME280;31254;51.680;5.394;2023-05-17T03:56:41;102563.09;;;8.47;88.41
45523;BME280;31254;51.680;5.394;2023-05-17T03:59:12;102589.59;;;8.58;88.43
45523;BME280;31254;51.680;5.394;2023-05-17T04:01:42;102590.38;;;8.60;88.31
45523;BME280;31254;51.680;5.394;2023-05-17T04:04:09;102581.25;;;8.61;88.44
45523;BME280;31254;51.680;5.394;2023-05-17T04:06:37;102583.09;;;8.60;88.24
45523;BME280;31254;51.680;5.394;2023-05-17T04:09:04;102589.91;;;8.68;88.47
45523;BME280;31254;51.680;5.394;2023-05-17T04:11:32;102560.06;;;8.52;88.26
45523;BME280;31254;51.680;5.394;2023-05-17T04:13:59;102581.75;;;8.68;87.92
45523;BME280;31254;51.680;5.394;2023-05-17T04:16:26;102594.88;;;8.75;87.96
45523;BME280;31254;51.680;5.394;2023-05-17T04:18:53;102588.66;;;8.73;87.81
45523;BME280;31254;51.680;5.394;2023-05-17T04:21:20;102598.84;;;8.84;87.76
45523;BME280;31254;51.680;5.394;2023-05-17T04:23:46;102599.47;;;8.89;87.45
45523;BME280;31254;51.680;5.394;2023-05-17T04:26:13;102594.13;;;8.88;87.47
45523;BME280;31254;51.680;5.394;2023-05-17T04:28:40;102604.41;;;8.97;87.29
45523;BME280;31254;51.680;5.394;2023-05-17T04:31:09;102606.06;;;9.00;87.38
45523;BME280;31254;51.680;5.394;2023-05-17T04:33:36;102623.19;;;9.02;87.30
45523;BME280;31254;51.680;5.394;2023-05-17T04:36:03;102615.59;;;9.07;87.04
45523;BME280;31254;51.680;5.394;2023-05-17T04:38:30;102612.50;;;9.13;86.56
45523;BME280;31254;51.680;5.394;2023-05-17T04:41:02;102626.69;;;9.32;86.57
45523;BME280;31254;51.680;5.394;2023-05-17T04:43:32;102618.13;;;9.39;86.00
45523;BME280;31254;51.680;5.394;2023-05-17T04:45:59;102631.78;;;9.66;85.26
45523;BME280;31254;51.680;5.394;2023-05-17T04:48:30;102626.28;;;9.95;84.50
45523;BME280;31254;51.680;5.394;2023-05-17T04:51:01;102616.41;;;10.34;82.89
45523;BME280;31254;51.680;5.394;2023-05-17T04:53:30;102638.94;;;10.63;82.35
45523;BME280;31254;51.680;5.394;2023-05-17T04:55:57;102638.69;;;10.53;82.86
45523;BME280;31254;51.680;5.394;2023-05-17T04:58:24;102597.09;;;10.37;82.47
45523;BME280;31254;51.680;5.394;2023-05-17T05:00:54;102650.09;;;10.73;82.05
45523;BME280;31254;51.680;5.394;2023-05-17T05:03:23;102623.22;;;10.92;81.78
45523;BME280;31254;51.680;5.394;2023-05-17T05:05:50;102640.34;;;11.46;79.80
45523;BME280;31254;51.680;5.394;2023-05-17T05:08:17;102645.66;;;12.34;77.50
45523;BME280;31254;51.680;5.394;2023-05-17T05:10:44;102633.66;;;14.71;70.09
45523;BME280;31254;51.680;5.394;2023-05-17T05:13:11;102637.63;;;16.60;64.49
45523;BME280;31254;51.680;5.394;2023-05-17T05:15:38;102636.13;;;17.70;61.92
45523;BME280;31254;51.680;5.394;2023-05-17T05:18:09;102619.34;;;18.27;59.61
45523;BME280;31254;51.680;5.394;2023-05-17T05:20:36;102639.66;;;18.98;58.35
45523;BME280;31254;51.680;5.394;2023-05-17T05:23:03;102651.78;;;19.06;58.18
45523;BME280;31254;51.680;5.394;2023-05-17T05:25:32;102657.69;;;19.45;57.20
45523;BME280;31254;51.680;5.394;2023-05-17T05:27:58;102641.31;;;19.86;55.70
45523;BME280;31254;51.680;5.394;2023-05-17T05:30:25;102640.91;;;20.98;53.35
45523;BME280;31254;51.680;5.394;2023-05-17T05:32:52;102645.44;;;21.95;51.12
45523;BME280;31254;51.680;5.394;2023-05-17T05:35:19;102649.00;;;22.12;50.51
45523;BME280;31254;51.680;5.394;2023-05-17T05:37:46;102659.09;;;22.13;50.29
45523;BME280;31254;51.680;5.394;2023-05-17T05:40:13;102657.03;;;22.38;49.66
45523;BME280;31254;51.680;5.394;2023-05-17T05:42:40;102662.22;;;22.79;48.34
45523;BME280;31254;51.680;5.394;2023-05-17T05:45:09;102657.84;;;23.23;47.10
45523;BME280;31254;51.680;5.394;2023-05-17T05:47:36;102669.78;;;22.70;47.50
45523;BME280;31254;51.680;5.394;2023-05-17T05:50:06;102663.50;;;22.30;47.68
45523;BME280;31254;51.680;5.394;2023-05-17T05:52:33;102662.22;;;22.41;47.09
45523;BME280;31254;51.680;5.394;2023-05-17T05:55:00;102676.78;;;22.89;46.13
45523;BME280;31254;51.680;5.394;2023-05-17T05:57:27;102657.78;;;23.31;45.25
45523;BME280;31254;51.680;5.394;2023-05-17T05:59:54;102677.22;;;23.76;43.74
45523;BME280;31254;51.680;5.394;2023-05-17T06:02:21;102679.16;;;23.90;43.85
45523;BME280;31254;51.680;5.394;2023-05-17T06:04:48;102686.84;;;24.03;42.95
45523;BME280;31254;51.680;5.394;2023-05-17T06:07:17;102681.47;;;23.71;43.33
45523;BME280;31254;51.680;5.394;2023-05-17T06:09:46;102683.56;;;23.69;42.44
45523;BME280;31254;51.680;5.394;2023-05-17T06:12:13;102689.06;;;23.48;42.01
45523;BME280;31254;51.680;5.394;2023-05-17T06:14:40;102693.28;;;23.44;41.67
45523;BME280;31254;51.680;5.394;2023-05-17T06:17:09;102690.66;;;23.27;40.90
45523;BME280;31254;51.680;5.394;2023-05-17T06:19:36;102698.84;;;22.91;41.66
45523;BME280;31254;51.680;5.394;2023-05-17T06:22:03;102696.84;;;23.67;40.09
45523;BME280;31254;51.680;5.394;2023-05-17T06:24:30;102706.56;;;23.71;39.92
45523;BME280;31254;51.680;5.394;2023-05-17T06:26:58;102708.53;;;22.95;40.27
45523;BME280;31254;51.680;5.394;2023-05-17T06:29:25;102719.88;;;23.46;39.31
45523;BME280;31254;51.680;5.394;2023-05-17T06:31:51;102715.38;;;23.45;39.21
45523;BME280;31254;51.680;5.394;2023-05-17T06:34:18;102721.38;;;23.19;39.15
45523;BME280;31254;51.680;5.394;2023-05-17T06:36:47;102727.28;;;23.39;38.76
45523;BME280;31254;51.680;5.394;2023-05-17T06:39:14;102715.16;;;23.32;38.82
45523;BME280;31254;51.680;5.394;2023-05-17T06:41:43;102720.84;;;24.50;37.10
45523;BME280;31254;51.680;5.394;2023-05-17T06:44:10;102713.91;;;25.10;36.36
45523;BME280;31254;51.680;5.394;2023-05-17T06:46:39;102704.94;;;24.87;36.30
45523;BME280;31254;51.680;5.394;2023-05-17T06:49:05;102716.03;;;24.80;36.64
45523;BME280;31254;51.680;5.394;2023-05-17T06:51:32;102707.97;;;24.92;35.88
45523;BME280;31254;51.680;5.394;2023-05-17T06:54:01;102711.94;;;23.88;36.01
45523;BME280;31254;51.680;5.394;2023-05-17T06:56:28;102724.94;;;24.54;35.71
45523;BME280;31254;51.680;5.394;2023-05-17T06:58:55;102730.00;;;24.43;35.90
45523;BME280;31254;51.680;5.394;2023-05-17T07:01:24;102725.13;;;24.67;35.30
45523;BME280;31254;51.680;5.394;2023-05-17T07:03:51;102721.44;;;25.66;34.08
45523;BME280;31254;51.680;5.394;2023-05-17T07:06:18;102719.34;;;26.17;33.15
45523;BME280;31254;51.680;5.394;2023-05-17T07:08:45;102717.91;;;25.23;34.18
45523;BME280;31254;51.680;5.394;2023-05-17T07:11:12;102727.84;;;24.60;35.24
45523;BME280;31254;51.680;5.394;2023-05-17T07:13:38;102725.38;;;24.94;33.98
45523;BME280;31254;51.680;5.394;2023-05-17T07:16:08;102735.97;;;24.40;34.72
45523;BME280;31254;51.680;5.394;2023-05-17T07:18:34;102727.38;;;24.20;34.43
45523;BME280;31254;51.680;5.394;2023-05-17T07:21:01;102742.75;;;24.53;33.86
45523;BME280;31254;51.680;5.394;2023-05-17T07:23:30;102749.28;;;23.49;35.34
45523;BME280;31254;51.680;5.394;2023-05-17T07:25:57;102744.41;;;22.43;36.76
45523;BME280;31254;51.680;5.394;2023-05-17T07:28:24;102749.78;;;20.16;40.52
45523;BME280;31254;51.680;5.394;2023-05-17T07:30:51;102749.97;;;20.98;39.57
45523;BME280;31254;51.680;5.394;2023-05-17T07:33:18;102745.09;;;23.83;34.73
45523;BME280;31254;51.680;5.394;2023-05-17T07:35:45;102754.13;;;23.85;34.39
45523;BME280;31254;51.680;5.394;2023-05-17T07:38:13;102754.03;;;23.93;33.91
45523;BME280;31254;51.680;5.394;2023-05-17T07:40:40;102718.38;;;21.97;35.59
45523;BME280;31254;51.680;5.394;2023-05-17T07:43:13;102752.34;;;22.46;35.16
45523;BME280;31254;51.680;5.394;2023-05-17T07:45:42;102778.81;;;20.46;37.27
45523;BME280;31254;51.680;5.394;2023-05-17T07:48:12;102774.50;;;19.23;39.92
45523;BME280;31254;51.680;5.394;2023-05-17T07:50:40;102776.13;;;20.96;36.76
45523;BME280;31254;51.680;5.394;2023-05-17T07:53:07;102755.75;;;22.34;34.65
45523;BME280;31254;51.680;5.394;2023-05-17T07:55:34;102751.09;;;23.42;33.51
45523;BME280;31254;51.680;5.394;2023-05-17T07:58:00;102770.09;;;21.50;36.05
45523;BME280;31254;51.680;5.394;2023-05-17T08:00:27;102771.00;;;19.99;37.95
45523;BME280;31254;51.680;5.394;2023-05-17T08:02:55;102756.25;;;19.90;38.39
45523;BME280;31254;51.680;5.394;2023-05-17T08:05:22;102775.81;;;21.48;35.70
45523;BME280;31254;51.680;5.394;2023-05-17T08:07:49;102783.59;;;21.36;35.54
45523;BME280;31254;51.680;5.394;2023-05-17T08:10:17;102774.47;;;22.40;33.82
45523;BME280;31254;51.680;5.394;2023-05-17T08:12:46;102776.34;;;20.35;36.37
45523;BME280;31254;51.680;5.394;2023-05-17T08:15:13;102780.81;;;19.85;37.43
45523;BME280;31254;51.680;5.394;2023-05-17T08:17:39;102791.56;;;20.31;37.44
45523;BME280;31254;51.680;5.394;2023-05-17T08:20:07;102778.31;;;22.39;34.02
45523;BME280;31254;51.680;5.394;2023-05-17T08:22:36;102776.00;;;23.20;32.59
45523;BME280;31254;51.680;5.394;2023-05-17T08:25:03;102775.41;;;23.01;32.82
45523;BME280;31254;51.680;5.394;2023-05-17T08:27:33;102771.00;;;22.92;32.53
45523;BME280;31254;51.680;5.394;2023-05-17T08:30:02;102786.44;;;22.72;33.49
45523;BME280;31254;51.680;5.394;2023-05-17T08:32:37;102785.03;;;22.44;33.11
45523;BME280;31254;51.680;5.394;2023-05-17T08:35:04;102776.34;;;22.71;31.97
45523;BME280;31254;51.680;5.394;2023-05-17T08:37:31;102773.69;;;23.77;31.19
45523;BME280;31254;51.680;5.394;2023-05-17T08:39:58;102768.00;;;23.55;31.54
45523;BME280;31254;51.680;5.394;2023-05-17T08:42:25;102782.63;;;21.94;33.62
45523;BME280;31254;51.680;5.394;2023-05-17T08:44:55;102778.59;;;19.71;37.39
45523;BME280;31254;51.680;5.394;2023-05-17T08:47:28;102790.22;;;18.86;39.18
45523;BME280;31254;51.680;5.394;2023-05-17T08:49:59;102796.47;;;20.45;36.09
45523;BME280;31254;51.680;5.394;2023-05-17T08:52:28;102791.75;;;21.30;34.34
45523;BME280;31254;51.680;5.394;2023-05-17T08:54:57;102783.94;;;21.42;34.55
45523;BME280;31254;51.680;5.394;2023-05-17T08:57:27;102793.34;;;19.98;36.95
45523;BME280;31254;51.680;5.394;2023-05-17T08:59:54;102791.22;;;21.10;35.34
45523;BME280;31254;51.680;5.394;2023-05-17T09:02:21;102786.91;;;22.52;33.47
45523;BME280;31254;51.680;5.394;2023-05-17T09:04:52;102774.16;;;23.12;32.62
45523;BME280;31254;51.680;5.394;2023-05-17T09:07:21;102788.69;;;22.45;32.90
45523;BME280;31254;51.680;5.394;2023-05-17T09:09:54;102783.34;;;21.87;33.97
45523;BME280;31254;51.680;5.394;2023-05-17T09:12:21;102768.47;;;21.47;34.02
45523;BME280;31254;51.680;5.394;2023-05-17T09:14:53;102782.19;;;21.41;34.15
45523;BME280;31254;51.680;5.394;2023-05-17T09:17:20;102790.19;;;21.19;34.74
45523;BME280;31254;51.680;5.394;2023-05-17T09:19:47;102780.66;;;21.05;34.96
45523;BME280;31254;51.680;5.394;2023-05-17T09:22:19;102791.91;;;19.94;37.13
45523;BME280;31254;51.680;5.394;2023-05-17T09:24:48;102796.44;;;20.37;37.10
45523;BME280;31254;51.680;5.394;2023-05-17T09:27:16;102783.72;;;19.84;37.76
45523;BME280;31254;51.680;5.394;2023-05-17T09:29:44;102783.69;;;19.76;38.20
45523;BME280;31254;51.680;5.394;2023-05-17T09:32:18;102797.91;;;19.81;38.83
45523;BME280;31254;51.680;5.394;2023-05-17T09:34:50;102791.66;;;20.13;37.38
45523;BME280;31254;51.680;5.394;2023-05-17T09:37:18;102794.06;;;18.75;38.21
45523;BME280;31254;51.680;5.394;2023-05-17T09:39:48;102800.63;;;19.28;37.68
45523;BME280;31254;51.680;5.394;2023-05-17T09:42:15;102801.28;;;18.86;37.45
45523;BME280;31254;51.680;5.394;2023-05-17T09:44:50;102793.16;;;18.39;38.34
45523;BME280;31254;51.680;5.394;2023-05-17T09:47:26;102797.56;;;18.77;38.53
45523;BME280;31254;51.680;5.394;2023-05-17T09:49:58;102787.25;;;18.52;38.89
45523;BME280;31254;51.680;5.394;2023-05-17T09:52:28;102802.94;;;18.51;38.92
45523;BME280;31254;51.680;5.394;2023-05-17T09:55:00;102806.94;;;18.21;39.39
45523;BME280;31254;51.680;5.394;2023-05-17T09:57:34;102762.06;;;17.62;39.28
45523;BME280;31254;51.680;5.394;2023-05-17T10:00:03;102808.31;;;17.97;38.88
45523;BME280;31254;51.680;5.394;2023-05-17T10:02:38;102788.69;;;18.00;38.52
45523;BME280;31254;51.680;5.394;2023-05-17T10:05:10;102799.66;;;18.20;38.50
45523;BME280;31254;51.680;5.394;2023-05-17T10:07:39;102803.72;;;18.25;37.99
45523;BME280;31254;51.680;5.394;2023-05-17T10:10:07;102801.88;;;18.62;37.75
45523;BME280;31254;51.680;5.394;2023-05-17T10:12:34;102796.31;;;18.44;38.09
45523;BME280;31254;51.680;5.394;2023-05-17T10:15:05;102783.56;;;17.68;37.92
45523;BME280;31254;51.680;5.394;2023-05-17T10:17:33;102797.84;;;18.01;39.36
45523;BME280;31254;51.680;5.394;2023-05-17T10:20:02;102793.66;;;17.87;38.60
45523;BME280;31254;51.680;5.394;2023-05-17T10:22:32;102791.50;;;17.90;38.65
45523;BME280;31254;51.680;5.394;2023-05-17T10:24:59;102791.75;;;17.97;38.65
45523;BME280;31254;51.680;5.394;2023-05-17T10:27:27;102802.13;;;18.23;38.70
45523;BME280;31254;51.680;5.394;2023-05-17T10:29:56;102802.31;;;18.12;38.82
45523;BME280;31254;51.680;5.394;2023-05-17T10:32:26;102793.63;;;18.06;39.19
45523;BME280;31254;51.680;5.394;2023-05-17T10:34:53;102787.84;;;18.27;39.22
45523;BME280;31254;51.680;5.394;2023-05-17T10:37:38;102791.69;;;18.62;38.69
45523;BME280;31254;51.680;5.394;2023-05-17T10:40:07;102784.66;;;18.50;39.03
45523;BME280;31254;51.680;5.394;2023-05-17T10:42:46;102779.66;;;18.08;39.23
45523;BME280;31254;51.680;5.394;2023-05-17T10:45:21;102788.69;;;18.28;38.82
45523;BME280;31254;51.680;5.394;2023-05-17T10:47:52;102786.72;;;18.66;38.79
45523;BME280;31254;51.680;5.394;2023-05-17T10:50:25;102789.75;;;19.09;37.98
45523;BME280;31254;51.680;5.394;2023-05-17T10:52:56;102781.00;;;18.95;38.46
45523;BME280;31254;51.680;5.394;2023-05-17T10:55:36;102747.03;;;17.94;39.08
45523;BME280;31254;51.680;5.394;2023-05-17T10:58:15;102776.59;;;17.64;39.79
45523;BME280;31254;51.680;5.394;2023-05-17T11:00:50;102790.84;;;17.69;39.12
45523;BME280;31254;51.680;5.394;2023-05-17T11:06:17;102778.84;;;18.25;38.65
45523;BME280;31254;51.680;5.394;2023-05-17T11:09:14;102782.94;;;18.21;38.85
45523;BME280;31254;51.680;5.394;2023-05-17T11:12:07;102758.31;;;18.28;38.54
45523;BME280;31254;51.680;5.394;2023-05-17T11:14:55;102760.16;;;18.37;38.62
45523;BME280;31254;51.680;5.394;2023-05-17T11:20:29;102776.06;;;17.98;38.32
45523;BME280;31254;51.680;5.394;2023-05-17T11:22:58;102775.25;;;17.87;37.88
45523;BME280;31254;51.680;5.394;2023-05-17T11:25:36;102776.09;;;17.88;37.91
45523;BME280;31254;51.680;5.394;2023-05-17T11:28:22;102787.41;;;17.85;37.71
45523;BME280;31254;51.680;5.394;2023-05-17T11:30:48;102786.63;;;17.65;38.39
45523;BME280;31254;51.680;5.394;2023-05-17T11:33:19;102778.72;;;17.89;38.76
45523;BME280;31254;51.680;5.394;2023-05-17T11:36:04;102788.84;;;18.26;38.08
45523;BME280;31254;51.680;5.394;2023-05-17T11:38:32;102777.56;;;18.20;38.38
45523;BME280;31254;51.680;5.394;2023-05-17T11:41:16;102772.78;;;18.12;39.00
45523;BME280;31254;51.680;5.394;2023-05-17T11:43:52;102773.94;;;17.92;39.57
45523;BME280;31254;51.680;5.394;2023-05-17T11:46:21;102781.63;;;17.78;39.14
45523;BME280;31254;51.680;5.394;2023-05-17T11:48:51;102783.25;;;17.71;39.29
45523;BME280;31254;51.680;5.394;2023-05-17T11:51:19;102780.81;;;17.68;39.07
45523;BME280;31254;51.680;5.394;2023-05-17T11:53:53;102788.25;;;17.58;38.98
45523;BME280;31254;51.680;5.394;2023-05-17T11:56:22;102775.09;;;17.79;38.98
45523;BME280;31254;51.680;5.394;2023-05-17T11:59:07;102782.66;;;17.77;39.11
45523;BME280;31254;51.680;5.394;2023-05-17T12:01:47;102783.25;;;17.71;39.56
45523;BME280;31254;51.680;5.394;2023-05-17T12:04:22;102778.56;;;17.81;39.31
45523;BME280;31254;51.680;5.394;2023-05-17T12:07:00;102785.28;;;17.79;38.48
45523;BME280;31254;51.680;5.394;2023-05-17T12:09:29;102777.47;;;17.64;38.34
45523;BME280;31254;51.680;5.394;2023-05-17T12:11:57;102776.28;;;17.67;38.62
45523;BME280;31254;51.680;5.394;2023-05-17T12:14:25;102781.69;;;17.59;38.76
45523;BME280;31254;51.680;5.394;2023-05-17T12:16:53;102766.66;;;17.43;38.92
45523;BME280;31254;51.680;5.394;2023-05-17T12:19:22;102769.16;;;17.27;38.75
45523;BME280;31254;51.680;5.394;2023-05-17T12:21:51;102777.25;;;17.48;39.26
45523;BME280;31254;51.680;5.394;2023-05-17T12:24:18;102767.59;;;17.62;38.80
45523;BME280;31254;51.680;5.394;2023-05-17T12:26:45;102772.44;;;17.50;38.05
45523;BME280;31254;51.680;5.394;2023-05-17T12:29:13;102771.69;;;17.58;38.16
45523;BME280;31254;51.680;5.394;2023-05-17T12:31:51;102766.59;;;17.63;38.07
45523;BME280;31254;51.680;5.394;2023-05-17T12:34:21;102769.78;;;17.58;38.08
45523;BME280;31254;51.680;5.394;2023-05-17T12:36:51;102758.63;;;17.50;37.84
45523;BME280;31254;51.680;5.394;2023-05-17T12:39:19;102783.25;;;17.71;37.77
45523;BME280;31254;51.680;5.394;2023-05-17T12:41:50;102775.56;;;17.65;36.96
45523;BME280;31254;51.680;5.394;2023-05-17T12:44:20;102774.41;;;17.67;36.75
45523;BME280;31254;51.680;5.394;2023-05-17T12:46:49;102767.38;;;17.83;36.91
45523;BME280;31254;51.680;5.394;2023-05-17T12:49:19;102768.25;;;17.83;36.74
45523;BME280;31254;51.680;5.394;2023-05-17T12:51:49;102773.81;;;17.64;36.44
45523;BME280;31254;51.680;5.394;2023-05-17T12:54:26;102782.44;;;17.61;36.96
45523;BME280;31254;51.680;5.394;2023-05-17T12:56:54;102774.84;;;17.72;37.29
45523;BME280;31254;51.680;5.394;2023-05-17T12:59:23;102761.41;;;17.50;36.37
45523;BME280;31254;51.680;5.394;2023-05-17T13:01:56;102747.66;;;17.21;36.58
45523;BME280;31254;51.680;5.394;2023-05-17T13:04:30;102754.03;;;17.21;36.87
45523;BME280;31254;51.680;5.394;2023-05-17T13:07:03;102776.81;;;17.33;36.78
45523;BME280;31254;51.680;5.394;2023-05-17T13:09:31;102764.38;;;17.19;36.96
45523;BME280;31254;51.680;5.394;2023-05-17T13:12:01;102756.97;;;17.00;37.69
45523;BME280;31254;51.680;5.394;2023-05-17T13:14:57;102773.81;;;16.97;37.47
45523;BME280;31254;51.680;5.394;2023-05-17T13:17:26;102764.69;;;16.96;36.69
45523;BME280;31254;51.680;5.394;2023-05-17T13:20:00;102772.38;;;16.93;37.36
45523;BME280;31254;51.680;5.394;2023-05-17T13:22:27;102766.84;;;16.93;37.34
45523;BME280;31254;51.680;5.394;2023-05-17T13:24:56;102765.97;;;17.02;38.28
45523;BME280;31254;51.680;5.394;2023-05-17T13:27:22;102765.81;;;17.04;37.54
45523;BME280;31254;51.680;5.394;2023-05-17T13:29:49;102766.72;;;17.04;37.00